createdAt,value
2023-05-09T00:01:49.744Z,51.26
2023-05-09T00:04:17.775Z,51.42
2023-05-09T00:06:45.417Z,51.42
2023-05-09T00:09:12.775Z,51.56
2023-05-09T00:11:40.600Z,51.37
2023-05-09T00:14:07.904Z,51.56
2023-05-09T00:16:36.326Z,51.61
2023-05-09T00:19:04.498Z,51.63
2023-05-09T00:21:31.746Z,51.75
2023-05-09T00:24:00.081Z,51.70
2023-05-09T00:26:28.022Z,51.73
2023-05-09T00:28:55.197Z,51.69
2023-05-09T00:31:22.390Z,51.56
2023-05-09T00:33:50.878Z,51.78
2023-05-09T00:36:18.503Z,51.91
2023-05-09T00:38:46.864Z,52.08
2023-05-09T00:41:14.477Z,52.32
2023-05-09T00:43:41.984Z,52.12
2023-05-09T00:46:09.199Z,52.13
2023-05-09T00:48:36.843Z,52.36
2023-05-09T00:51:04.518Z,52.29
2023-05-09T00:53:32.174Z,52.35
2023-05-09T00:56:00.753Z,52.33
2023-05-09T00:58:28.221Z,52.13
2023-05-09T01:00:55.478Z,52.16
2023-05-09T01:03:23.421Z,52.32
2023-05-09T01:06:09.323Z,52.13
2023-05-09T01:09:11.620Z,52.39
2023-05-09T01:12:12.260Z,52.41
2023-05-09T01:14:55.083Z,52.31
2023-05-09T01:17:30.572Z,52.32
2023-05-09T01:20:37.473Z,52.53
2023-05-09T01:23:23.285Z,52.51
2023-05-09T01:26:04.928Z,52.66
2023-05-09T01:28:54.246Z,52.68
2023-05-09T01:31:24.378Z,52.73
2023-05-09T01:33:59.496Z,52.82
2023-05-09T01:36:35.112Z,52.95
2023-05-09T01:39:03.917Z,52.80
2023-05-09T01:41:35.932Z,52.74
2023-05-09T01:44:07.707Z,52.78
2023-05-09T01:46:37.503Z,52.81
2023-05-09T01:49:07.403Z,52.82
2023-05-09T01:51:37.677Z,52.90
2023-05-09T01:54:07.020Z,53.18
2023-05-09T01:56:36.715Z,53.05
2023-05-09T01:59:06.452Z,52.88
2023-05-09T02:01:34.922Z,53.21
2023-05-09T02:04:04.883Z,53.32
2023-05-09T02:06:33.372Z,53.12
2023-05-09T02:09:03.020Z,53.35
2023-05-09T02:11:30.365Z,53.27
2023-05-09T02:13:57.566Z,53.35
2023-05-09T02:16:26.283Z,53.40
2023-05-09T02:18:53.437Z,53.13
2023-05-09T02:21:20.583Z,53.33
2023-05-09T02:23:48.897Z,53.16
2023-05-09T02:26:16.842Z,53.26
2023-05-09T02:28:45.228Z,53.32
2023-05-09T02:31:14.540Z,53.33
2023-05-09T02:33:42.995Z,53.35
2023-05-09T02:36:11.462Z,53.36
2023-05-09T02:38:41.336Z,53.27
2023-05-09T02:41:15.338Z,53.21
2023-05-09T02:43:43.475Z,53.68
2023-05-09T02:46:10.987Z,53.64
2023-05-09T02:48:38.334Z,53.69
2023-05-09T02:51:06.058Z,53.55
2023-05-09T02:53:33.440Z,53.64
2023-05-09T02:56:00.630Z,53.82
2023-05-09T02:58:28.460Z,53.84
2023-05-09T03:00:55.626Z,53.78
2023-05-09T03:03:22.955Z,53.78
2023-05-09T03:05:51.703Z,53.79
2023-05-09T03:08:18.962Z,53.93
2023-05-09T03:10:47.350Z,53.94
2023-05-09T03:13:15.455Z,53.97
2023-05-09T03:15:43.044Z,53.86
2023-05-09T03:18:12.303Z,53.94
2023-05-09T03:20:40.023Z,54.09
2023-05-09T03:23:07.444Z,53.84
2023-05-09T03:25:34.907Z,53.98
2023-05-09T03:28:02.544Z,54.04
2023-05-09T03:30:30.465Z,54.08
2023-05-09T03:32:58.095Z,54.15
2023-05-09T03:35:26.099Z,54.20
2023-05-09T03:37:54.187Z,54.12
2023-05-09T03:40:21.498Z,54.27
2023-05-09T03:42:54.524Z,54.38
2023-05-09T03:45:21.741Z,54.17
2023-05-09T03:47:49.040Z,54.41
2023-05-09T03:50:17.080Z,54.42
2023-05-09T03:52:44.476Z,54.46
2023-05-09T03:55:13.047Z,54.26
2023-05-09T03:57:41.668Z,54.32
2023-05-09T04:00:09.956Z,54.67
2023-05-09T04:02:49.097Z,54.74
2023-05-09T04:05:22.634Z,54.62
2023-05-09T04:07:50.173Z,54.61
2023-05-09T04:10:18.113Z,54.44
2023-05-09T04:12:45.757Z,54.66
2023-05-09T04:15:16.145Z,54.77
2023-05-09T04:17:44.683Z,55.02
2023-05-09T04:20:12.256Z,55.53
2023-05-09T04:22:40.302Z,55.43
2023-05-09T04:25:12.061Z,55.43
2023-05-09T04:27:39.402Z,55.25
2023-05-09T04:30:08.076Z,54.91
2023-05-09T04:32:36.600Z,55.08
2023-05-09T04:35:04.715Z,54.62
2023-05-09T04:37:34.238Z,53.99
2023-05-09T04:40:02.538Z,53.60
2023-05-09T04:42:37.477Z,54.13
2023-05-09T04:45:05.563Z,54.30
2023-05-09T04:47:32.901Z,54.70
2023-05-09T04:50:01.120Z,54.62
2023-05-09T04:52:28.355Z,54.80
2023-05-09T04:54:58.397Z,54.36
2023-05-09T04:57:27.314Z,54.39
2023-05-09T04:59:56.707Z,54.63
2023-05-09T05:02:24.892Z,54.17
2023-05-09T05:05:03.030Z,53.91
2023-05-09T05:07:38.708Z,53.52
2023-05-09T05:10:07.311Z,53.33
2023-05-09T05:12:35.407Z,53.24
2023-05-09T05:15:03.211Z,52.65
2023-05-09T05:17:31.317Z,53.29
2023-05-09T05:19:59.119Z,53.09
2023-05-09T05:22:29.018Z,52.72
2023-05-09T05:24:58.424Z,52.74
2023-05-09T05:27:25.642Z,51.51
2023-05-09T05:29:52.795Z,51.94
2023-05-09T05:32:22.359Z,51.93
2023-05-09T05:34:50.186Z,51.51
2023-05-09T05:37:17.877Z,51.47
2023-05-09T05:39:45.536Z,51.27
2023-05-09T05:42:12.789Z,50.10
2023-05-09T05:44:40.564Z,50.15
2023-05-09T05:47:10.669Z,49.33
2023-05-09T05:49:38.475Z,49.01
2023-05-09T05:52:06.164Z,49.12
2023-05-09T05:54:33.712Z,49.36
2023-05-09T05:57:00.856Z,49.04
2023-05-09T05:59:28.135Z,49.00
2023-05-09T06:01:55.642Z,48.67
2023-05-09T06:04:23.164Z,47.26
2023-05-09T06:06:54.135Z,46.54
2023-05-09T06:09:22.555Z,46.20
2023-05-09T06:11:50.401Z,45.23
2023-05-09T06:14:17.794Z,45.64
2023-05-09T06:16:46.213Z,45.78
2023-05-09T06:19:14.602Z,45.31
2023-05-09T06:21:41.952Z,45.01
2023-05-09T06:24:14.395Z,43.99
2023-05-09T06:26:50.946Z,43.19
2023-05-09T06:29:19.154Z,43.92
2023-05-09T06:31:47.249Z,43.76
2023-05-09T06:34:14.845Z,43.03
2023-05-09T06:36:43.101Z,41.25
2023-05-09T06:39:10.463Z,41.28
2023-05-09T06:41:37.654Z,41.46
2023-05-09T06:44:05.329Z,41.35
2023-05-09T06:46:34.122Z,41.02
2023-05-09T06:49:05.659Z,40.86
2023-05-09T06:51:33.500Z,41.41
2023-05-09T06:54:00.680Z,40.30
2023-05-09T06:56:27.989Z,39.64
2023-05-09T06:58:55.544Z,38.69
2023-05-09T07:01:22.758Z,38.55
2023-05-09T07:03:49.962Z,38.74
2023-05-09T07:06:17.908Z,38.87
2023-05-09T07:08:45.611Z,37.86
2023-05-09T07:11:12.854Z,37.28
2023-05-09T07:13:40.589Z,37.28
2023-05-09T07:16:07.888Z,37.49
2023-05-09T07:18:35.307Z,36.92
2023-05-09T07:21:03.425Z,37.23
2023-05-09T07:23:30.499Z,37.56
2023-05-09T07:25:58.747Z,37.07
2023-05-09T07:28:26.867Z,36.52
2023-05-09T07:30:57.600Z,36.55
2023-05-09T07:33:25.226Z,36.73
2023-05-09T07:35:53.433Z,37.03
2023-05-09T07:38:20.589Z,36.67
2023-05-09T07:40:48.973Z,36.33
2023-05-09T07:43:16.855Z,36.47
2023-05-09T07:45:44.133Z,36.06
2023-05-09T07:48:12.338Z,35.11
2023-05-09T07:50:40.164Z,35.03
2023-05-09T07:53:07.543Z,34.20
2023-05-09T07:55:35.015Z,35.37
2023-05-09T07:58:06.042Z,35.16
2023-05-09T08:01:01.353Z,34.86
2023-05-09T08:07:39.774Z,35.20
2023-05-09T08:10:28.310Z,34.85
2023-05-09T08:13:29.063Z,34.14
2023-05-09T08:16:07.380Z,34.14
2023-05-09T08:18:41.764Z,34.39
2023-05-09T08:21:40.774Z,33.74
2023-05-09T08:24:24.012Z,33.41
2023-05-09T08:27:19.192Z,33.14
2023-05-09T08:29:47.697Z,32.87
2023-05-09T08:32:24.649Z,32.78
2023-05-09T08:35:03.627Z,33.16
2023-05-09T08:38:22.781Z,33.30
2023-05-09T08:41:12.379Z,33.29
2023-05-09T08:43:46.874Z,32.99
2023-05-09T08:46:20.553Z,32.98
2023-05-09T08:48:50.226Z,33.34
2023-05-09T08:51:21.745Z,33.38
2023-05-09T08:53:53.462Z,33.49
2023-05-09T08:56:21.124Z,33.77
2023-05-09T08:58:51.159Z,33.91
2023-05-09T09:01:19.636Z,34.17
2023-05-09T09:03:51.279Z,34.36
2023-05-09T09:06:25.447Z,34.36
2023-05-09T09:08:55.057Z,34.71
2023-05-09T09:11:23.091Z,34.78
2023-05-09T09:13:54.509Z,34.89
2023-05-09T09:16:24.844Z,34.97
2023-05-09T09:18:56.277Z,35.11
2023-05-09T09:21:25.788Z,35.27
2023-05-09T09:23:56.394Z,35.20
2023-05-09T09:26:24.445Z,35.17
2023-05-09T09:28:52.553Z,35.28
2023-05-09T09:31:24.815Z,35.51
2023-05-09T09:33:52.019Z,35.70
2023-05-09T09:36:35.080Z,35.76
2023-05-09T09:39:04.397Z,35.72
2023-05-09T09:41:38.438Z,35.80
2023-05-09T09:44:19.117Z,35.69
2023-05-09T09:46:55.504Z,35.50
2023-05-09T09:49:25.936Z,35.59
2023-05-09T09:51:53.883Z,35.41
2023-05-09T09:54:21.774Z,35.32
2023-05-09T09:56:54.304Z,35.33
2023-05-09T09:59:25.007Z,35.36
2023-05-09T10:02:06.617Z,35.20
2023-05-09T10:04:42.409Z,35.33
2023-05-09T10:07:12.873Z,35.36
2023-05-09T10:09:44.028Z,35.46
2023-05-09T10:12:11.732Z,35.33
2023-05-09T10:14:42.743Z,35.32
2023-05-09T10:17:14.745Z,35.26
2023-05-09T10:19:45.452Z,35.40
2023-05-09T10:22:15.163Z,35.49
2023-05-09T10:25:05.570Z,35.49
2023-05-09T10:27:36.239Z,35.65
2023-05-09T10:30:18.862Z,36.02
2023-05-09T10:33:10.736Z,36.08
2023-05-09T10:35:47.058Z,36.17
2023-05-09T10:38:15.825Z,36.27
2023-05-09T10:40:49.970Z,36.41
2023-05-09T10:43:17.617Z,36.63
2023-05-09T10:45:44.937Z,37.00
2023-05-09T10:48:13.980Z,36.93
2023-05-09T10:50:42.205Z,36.96
2023-05-09T10:53:21.430Z,37.10
2023-05-09T10:55:51.061Z,37.16
2023-05-09T10:58:19.963Z,37.15
2023-05-09T11:00:49.480Z,37.41
2023-05-09T11:03:20.455Z,37.67
2023-05-09T11:05:50.169Z,37.66
2023-05-09T11:08:30.932Z,37.73
2023-05-09T11:11:06.393Z,37.68
2023-05-09T11:13:40.164Z,37.77
2023-05-09T11:16:13.779Z,37.77
2023-05-09T11:18:52.498Z,37.85
2023-05-09T11:21:20.974Z,37.93
2023-05-09T11:23:49.251Z,37.97
2023-05-09T11:26:22.722Z,38.00
2023-05-09T11:28:53.929Z,38.01
2023-05-09T11:31:21.262Z,38.04
2023-05-09T11:33:55.083Z,37.99
2023-05-09T11:36:33.096Z,38.02
2023-05-09T11:39:09.326Z,38.14
2023-05-09T11:41:57.691Z,38.08
2023-05-09T11:44:27.545Z,37.96
2023-05-09T11:46:57.100Z,38.02
2023-05-09T11:49:28.801Z,38.22
2023-05-09T11:52:26.241Z,38.25
2023-05-09T11:54:53.485Z,38.10
2023-05-09T11:57:20.857Z,38.10
2023-05-09T11:59:48.507Z,38.02
2023-05-09T12:02:17.135Z,38.14
2023-05-09T12:04:45.192Z,37.97
2023-05-09T12:07:12.957Z,37.93
2023-05-09T12:09:40.441Z,38.00
2023-05-09T12:12:11.081Z,38.02
2023-05-09T12:14:39.363Z,38.08
2023-05-09T12:20:47.058Z,38.17
2023-05-09T12:23:15.026Z,38.21
2023-05-09T12:25:53.362Z,38.18
2023-05-09T12:28:25.377Z,38.26
2023-05-09T12:30:54.332Z,38.29
2023-05-09T12:33:22.522Z,38.07
2023-05-09T12:36:04.496Z,38.08
2023-05-09T12:38:35.912Z,37.97
2023-05-09T12:41:31.017Z,37.89
2023-05-09T12:43:58.384Z,38.00
2023-05-09T12:46:26.062Z,38.18
2023-05-09T12:48:53.701Z,38.04
2023-05-09T12:51:22.398Z,37.93
2023-05-09T12:53:50.133Z,37.90
2023-05-09T12:56:20.116Z,37.67
2023-05-09T12:58:53.306Z,37.85
2023-05-09T13:01:22.974Z,37.67
2023-05-09T13:04:02.774Z,37.73
2023-05-09T13:06:32.399Z,37.81
2023-05-09T13:09:02.533Z,37.75
2023-05-09T13:11:30.619Z,37.49
2023-05-09T13:13:58.444Z,37.64
2023-05-09T13:16:26.520Z,37.72
2023-05-09T13:18:54.214Z,37.72
2023-05-09T13:21:22.468Z,37.67
2023-05-09T13:23:53.721Z,37.59
2023-05-09T13:26:22.137Z,37.55
2023-05-09T13:28:49.385Z,37.22
2023-05-09T13:31:30.545Z,37.21
2023-05-09T13:34:02.078Z,37.01
2023-05-09T13:36:33.113Z,36.80
2023-05-09T13:39:00.591Z,36.60
2023-05-09T13:41:38.312Z,36.64
2023-05-09T13:44:05.892Z,36.74
2023-05-09T13:46:41.832Z,36.82
2023-05-09T13:49:11.620Z,36.70
2023-05-09T13:51:41.881Z,36.77
2023-05-09T13:54:13.568Z,36.77
2023-05-09T13:56:42.853Z,36.61
2023-05-09T13:59:18.334Z,36.57
2023-05-09T14:01:46.648Z,36.51
2023-05-09T14:04:14.187Z,36.55
2023-05-09T14:06:48.144Z,36.57
2023-05-09T14:09:18.054Z,36.64
2023-05-09T14:11:52.283Z,36.74
2023-05-09T14:14:25.724Z,36.66
2023-05-09T14:16:54.472Z,36.61
2023-05-09T14:19:25.129Z,36.64
2023-05-09T14:21:53.463Z,36.58
2023-05-09T14:24:22.306Z,36.70
2023-05-09T14:26:53.525Z,36.57
2023-05-09T14:29:21.264Z,36.52
2023-05-09T14:31:53.449Z,36.31
2023-05-09T14:34:24.820Z,36.28
2023-05-09T14:36:52.457Z,36.33
2023-05-09T14:39:20.781Z,36.41
2023-05-09T14:41:49.738Z,36.38
2023-05-09T14:44:17.887Z,36.51
2023-05-09T14:46:46.211Z,36.51
2023-05-09T14:49:14.323Z,36.51
2023-05-09T14:51:45.817Z,36.64
2023-05-09T14:54:15.181Z,36.61
2023-05-09T14:56:45.296Z,36.61
2023-05-09T14:59:13.792Z,36.59
2023-05-09T15:01:42.934Z,36.60
2023-05-09T15:04:14.412Z,36.57
2023-05-09T15:06:43.646Z,36.60
2023-05-09T15:09:13.068Z,36.62
2023-05-09T15:11:48.725Z,36.58
2023-05-09T15:14:17.246Z,36.67
2023-05-09T15:16:53.865Z,36.81
2023-05-09T15:19:22.582Z,36.75
2023-05-09T15:21:54.781Z,36.67
2023-05-09T15:24:28.727Z,36.79
2023-05-09T15:27:06.665Z,36.88
2023-05-09T15:29:35.821Z,36.87
2023-05-09T15:32:05.095Z,36.90
2023-05-09T15:38:13.132Z,37.03
2023-05-09T15:40:46.918Z,37.18
2023-05-09T15:43:18.697Z,37.23
2023-05-09T15:45:49.417Z,37.23
2023-05-09T15:48:19.566Z,37.30
2023-05-09T15:50:48.697Z,37.26
2023-05-09T15:53:17.730Z,37.30
2023-05-09T15:55:50.977Z,37.37
2023-05-09T15:58:18.778Z,37.45
2023-05-09T16:00:47.889Z,37.52
2023-05-09T16:03:17.043Z,37.50
2023-05-09T16:05:52.316Z,37.52
2023-05-09T16:08:21.549Z,37.52
2023-05-09T16:10:49.600Z,37.59
2023-05-09T16:13:17.532Z,37.65
2023-05-09T16:15:48.143Z,37.69
2023-05-09T16:18:17.319Z,37.80
2023-05-09T16:20:45.074Z,37.88
2023-05-09T16:23:13.063Z,37.96
2023-05-09T16:25:41.301Z,38.02
2023-05-09T16:28:08.817Z,38.04
2023-05-09T16:30:36.060Z,38.21
2023-05-09T16:33:04.220Z,38.23
2023-05-09T16:35:32.927Z,38.23
2023-05-09T16:38:04.734Z,38.36
2023-05-09T16:40:43.037Z,38.49
2023-05-09T16:43:33.951Z,38.62
2023-05-09T16:46:04.221Z,38.80
2023-05-09T16:48:32.564Z,38.80
2023-05-09T16:51:00.015Z,38.77
2023-05-09T16:53:28.278Z,38.97
2023-05-09T16:55:55.662Z,38.94
2023-05-09T16:58:23.385Z,39.05
2023-05-09T17:00:51.581Z,39.13
2023-05-09T17:03:35.548Z,39.16
2023-05-09T17:06:37.257Z,39.29
2023-05-09T17:09:30.828Z,39.32
2023-05-09T17:12:25.914Z,39.47
2023-05-09T17:15:29.429Z,39.53
2023-05-09T17:18:36.097Z,39.54
2023-05-09T17:21:35.498Z,39.62
2023-05-09T17:24:40.059Z,39.79
2023-05-09T17:27:24.312Z,39.84
2023-05-09T17:30:37.550Z,39.89
2023-05-09T17:33:27.564Z,40.05
2023-05-09T17:36:18.552Z,40.16
2023-05-09T17:39:15.851Z,40.20
2023-05-09T17:42:09.216Z,40.40
2023-05-09T17:44:47.298Z,40.47
2023-05-09T17:47:16.793Z,40.53
2023-05-09T17:49:47.397Z,40.54
2023-05-09T17:52:15.668Z,40.55
2023-05-09T17:54:47.331Z,40.68
2023-05-09T17:57:15.417Z,40.71
2023-05-09T17:59:47.926Z,40.82
2023-05-09T18:02:16.929Z,41.08
2023-05-09T18:04:46.003Z,41.02
2023-05-09T18:07:14.327Z,40.98
2023-05-09T18:09:43.281Z,41.10
2023-05-09T18:12:11.711Z,41.15
2023-05-09T18:14:39.322Z,41.20
2023-05-09T18:17:08.886Z,41.45
2023-05-09T18:19:37.071Z,41.40
2023-05-09T18:22:04.437Z,41.74
2023-05-09T18:24:33.046Z,41.74
2023-05-09T18:27:02.818Z,41.83
2023-05-09T18:29:30.240Z,41.76
2023-05-09T18:31:57.940Z,41.94
2023-05-09T18:34:28.918Z,42.01
2023-05-09T18:36:56.884Z,42.14
2023-05-09T18:39:24.825Z,42.20
2023-05-09T18:41:53.417Z,42.27
2023-05-09T18:44:21.222Z,42.59
2023-05-09T18:46:50.103Z,42.67
2023-05-09T18:49:17.710Z,42.62
2023-05-09T18:51:45.205Z,42.69
2023-05-09T18:54:13.796Z,42.63
2023-05-09T18:56:42.149Z,42.76
2023-05-09T18:59:13.288Z,43.12
2023-05-09T19:01:42.236Z,43.10
2023-05-09T19:04:10.119Z,43.24
2023-05-09T19:06:41.985Z,43.37
2023-05-09T19:09:10.169Z,43.27
2023-05-09T19:11:37.635Z,43.45
2023-05-09T19:14:08.129Z,43.39
2023-05-09T19:16:36.930Z,43.54
2023-05-09T19:19:04.411Z,43.63
2023-05-09T19:24:19.792Z,43.57
2023-05-09T19:26:47.555Z,43.75
2023-05-09T19:29:15.016Z,43.86
2023-05-09T19:31:43.119Z,43.82
2023-05-09T19:34:10.853Z,43.89
2023-05-09T19:36:41.189Z,44.09
2023-05-09T19:39:10.920Z,44.31
2023-05-09T19:41:38.307Z,44.27
2023-05-09T19:44:06.843Z,44.47
2023-05-09T19:46:38.463Z,44.81
2023-05-09T19:49:06.085Z,45.22
2023-05-09T19:51:33.537Z,45.34
2023-05-09T19:54:01.599Z,45.10
2023-05-09T19:56:29.384Z,45.27
2023-05-09T19:58:56.740Z,45.91
2023-05-09T20:01:26.884Z,45.78
2023-05-09T20:03:56.434Z,45.92
2023-05-09T20:06:31.879Z,45.85
2023-05-09T20:09:02.134Z,45.74
2023-05-09T20:11:29.452Z,45.93
2023-05-09T20:13:57.731Z,46.03
2023-05-09T20:16:25.652Z,45.96
2023-05-09T20:18:54.889Z,46.03
2023-05-09T20:21:22.224Z,46.06
2023-05-09T20:23:49.955Z,46.43
2023-05-09T20:26:17.776Z,46.63
2023-05-09T20:28:45.261Z,46.57
2023-05-09T20:31:13.646Z,46.63
2023-05-09T20:33:42.055Z,46.62
2023-05-09T20:36:10.816Z,46.80
2023-05-09T20:38:38.317Z,46.73
2023-05-09T20:41:06.069Z,46.77
2023-05-09T20:43:34.412Z,46.87
2023-05-09T20:46:02.222Z,47.11
2023-05-09T20:48:30.041Z,47.06
2023-05-09T20:50:57.554Z,47.35
2023-05-09T20:53:27.204Z,47.90
2023-05-09T20:55:54.581Z,47.86
2023-05-09T20:58:22.086Z,47.89
2023-05-09T21:00:49.591Z,47.87
2023-05-09T21:03:17.318Z,47.68
2023-05-09T21:05:45.049Z,47.65
2023-05-09T21:08:12.502Z,47.67
2023-05-09T21:10:40.275Z,47.87
2023-05-09T21:13:09.165Z,47.87
2023-05-09T21:15:36.669Z,48.09
2023-05-09T21:18:04.714Z,48.17
2023-05-09T21:20:32.466Z,48.22
2023-05-09T21:23:00.376Z,48.27
2023-05-09T21:25:27.829Z,48.34
2023-05-09T21:27:55.957Z,48.99
2023-05-09T21:30:23.836Z,49.14
2023-05-09T21:32:51.802Z,49.01
2023-05-09T21:35:20.046Z,49.05
2023-05-09T21:37:50.057Z,49.16
2023-05-09T21:40:17.975Z,49.47
2023-05-09T21:42:47.452Z,49.59
2023-05-09T21:45:15.427Z,49.48
2023-05-09T21:47:43.108Z,49.28
2023-05-09T21:50:10.622Z,49.57
2023-05-09T21:52:41.003Z,49.77
2023-05-09T21:55:09.278Z,49.82
2023-05-09T21:57:37.175Z,49.90
2023-05-09T22:00:09.670Z,49.91
2023-05-09T22:02:43.233Z,50.03
2023-05-09T22:05:11.682Z,49.93
2023-05-09T22:07:39.222Z,50.26
2023-05-09T22:10:07.629Z,50.45
2023-05-09T22:12:35.277Z,50.23
2023-05-09T22:15:02.936Z,50.80
2023-05-09T22:17:30.729Z,50.47
2023-05-09T22:19:58.129Z,50.75
2023-05-09T22:22:26.829Z,51.41
2023-05-09T22:24:54.287Z,51.08
2023-05-09T22:27:22.118Z,50.77
2023-05-09T22:29:49.445Z,51.08
2023-05-09T22:32:17.030Z,50.87
2023-05-09T22:34:47.765Z,50.89
2023-05-09T22:37:15.069Z,50.98
2023-05-09T22:39:45.161Z,50.82
2023-05-09T22:42:13.209Z,50.91
2023-05-09T22:44:40.615Z,51.03
2023-05-09T22:47:07.936Z,51.13
2023-05-09T22:49:35.983Z,51.25
2023-05-09T22:52:03.778Z,51.36
2023-05-09T22:54:31.493Z,51.49
2023-05-09T22:56:59.615Z,51.47
2023-05-09T22:59:28.335Z,51.83
2023-05-09T23:01:56.098Z,51.71
2023-05-09T23:04:23.757Z,51.63
2023-05-09T23:06:51.409Z,51.83
2023-05-09T23:09:18.968Z,51.84
2023-05-09T23:11:46.902Z,52.02
2023-05-09T23:14:14.413Z,52.03
2023-05-09T23:16:41.907Z,52.23
2023-05-09T23:19:10.060Z,52.24
2023-05-09T23:21:37.501Z,52.23
2023-05-09T23:24:05.593Z,52.34
2023-05-09T23:26:33.065Z,52.33
2023-05-09T23:29:02.169Z,52.29
2023-05-09T23:31:29.640Z,52.52
2023-05-09T23:33:57.070Z,52.63
2023-05-09T23:36:24.580Z,52.51
2023-05-09T23:38:52.998Z,52.50
2023-05-09T23:41:21.614Z,52.62
2023-05-09T23:43:49.252Z,52.50
2023-05-09T23:46:17.061Z,52.63
2023-05-09T23:48:44.450Z,52.73
2023-05-09T23:51:13.501Z,52.83
2023-05-09T23:53:41.251Z,52.71
2023-05-09T23:56:08.904Z,53.02
2023-05-09T23:58:36.971Z,53.02
